»·PEaware :: N4868P KSNA-KCRQ

N4868P :: KSNA-KCRQ

FLIGHT INFORMATION

Flight Status: Arrived
Operator: Privately registered:
United States
More flights under this callsign
Pilot: Erik K. (18332)
Aircraft: CESSNA 172 SKYHAWK
(C172)
More flights by this aircraft type
Origin: KSNA John Wayne-Orange Co
United States
Destination: KCRQ McClellan-Palomar
United States
More flights between these airports :: More routes between these airports
Route: V23 OCN
File this flight plan on PilotEdge
Remarks: I-2
Altitude:
(Current/Filed)
5,000ft
Speed:
(Current/Filed)
104kts
Departed: 22-Apr-18 06:33 PM
Arrived: 22-Apr-18 07:16 PM
Distance/Time
Traveled:
44nm/0:43
Distance/Time
To Go:
Arrived

Flight Plot

Page will automatically refresh every two minutes.


Map Options




Map Legend


Flown Route
Filed Route
Departure Airport
Arrival Airport
Navaid (VOR, NDB)
Fix

Horizontal Profiles

Position Reports

Time Latitude Longitude Heading Altitude Ground
Speed
22-Apr-18 18:12 33.674144 -117.865592 117 60ft 0kts
22-Apr-18 18:13 33.674144 -117.865592 117 60ft 0kts
22-Apr-18 18:14 33.674144 -117.865592 117 60ft 0kts
22-Apr-18 18:15 33.674144 -117.865592 117 60ft 0kts
22-Apr-18 18:16 33.674144 -117.865592 117 60ft 0kts
22-Apr-18 18:17 33.674144 -117.865592 117 60ft 0kts
22-Apr-18 18:18 33.674144 -117.865592 117 60ft 0kts
22-Apr-18 18:19 33.674144 -117.865592 117 60ft 0kts
22-Apr-18 18:20 33.674144 -117.865592 117 60ft 0kts
22-Apr-18 18:21 33.674144 -117.865592 117 60ft 0kts
22-Apr-18 18:22 33.674144 -117.865592 117 60ft 0kts
22-Apr-18 18:23 33.674144 -117.865592 117 60ft 0kts
22-Apr-18 18:24 33.674144 -117.865592 117 60ft 0kts
22-Apr-18 18:25 33.674139 -117.866110 221 60ft 7kts
22-Apr-18 18:26 33.674557 -117.866810 23 60ft 4kts
22-Apr-18 18:27 33.678202 -117.864498 26 60ft 18kts
22-Apr-18 18:28 33.679879 -117.863542 335 60ft 0kts
22-Apr-18 18:29 33.679879 -117.863542 335 60ft 0kts
22-Apr-18 18:30 33.679879 -117.863542 335 60ft 0kts
22-Apr-18 18:31 33.679879 -117.863542 335 60ft 0kts
22-Apr-18 18:32 33.677723 -117.865667 208 60ft 51kts
22-Apr-18 18:33 33.656147 -117.873777 187 913ft 85kts
22-Apr-18 18:34 33.632601 -117.870075 145 1859ft 90kts
22-Apr-18 18:35 33.610282 -117.867509 178 2706ft 92kts
22-Apr-18 18:36 33.585705 -117.869724 184 3601ft 89kts
22-Apr-18 18:37 33.572635 -117.849314 99 4370ft 92kts
22-Apr-18 18:38 33.568264 -117.817419 108 4854ft 111kts
22-Apr-18 18:39 33.552412 -117.786846 119 4929ft 111kts
22-Apr-18 18:40 33.533400 -117.758121 123 4905ft 110kts
22-Apr-18 18:41 33.512751 -117.731112 132 4884ft 110kts
22-Apr-18 18:42 33.493014 -117.703183 130 4866ft 110kts
22-Apr-18 18:43 33.475325 -117.681099 138 4848ft 110kts
22-Apr-18 18:44 33.453973 -117.655121 132 4830ft 110kts
22-Apr-18 18:45 33.433257 -117.628710 135 4856ft 109kts
22-Apr-18 18:46 33.411756 -117.603285 139 4869ft 108kts
22-Apr-18 18:47 33.391881 -117.576042 136 4867ft 109kts
22-Apr-18 18:48 33.368173 -117.553763 129 4874ft 109kts
22-Apr-18 18:49 33.359357 -117.519463 102 4880ft 108kts
22-Apr-18 18:50 33.353209 -117.484014 98 4889ft 108kts
22-Apr-18 18:51 33.347775 -117.448582 101 4897ft 109kts
22-Apr-18 18:52 33.336593 -117.408597 101 4896ft 109kts
22-Apr-18 18:53 33.332450 -117.378980 100 4911ft 108kts
22-Apr-18 18:54 33.327812 -117.343971 101 4916ft 108kts
22-Apr-18 18:55 33.321501 -117.308852 100 4923ft 109kts
22-Apr-18 18:56 33.314364 -117.273669 107 4931ft 109kts
22-Apr-18 18:57 33.308570 -117.238184 101 4940ft 109kts
22-Apr-18 18:58 33.301001 -117.203267 101 4951ft 108kts
22-Apr-18 18:59 33.294386 -117.167262 101 4883ft 111kts
22-Apr-18 19:00 33.288194 -117.137500 108 4879ft 110kts
22-Apr-18 19:01 33.282102 -117.101637 98 4859ft 110kts
22-Apr-18 19:02 33.276263 -117.065746 102 4840ft 110kts
22-Apr-18 19:03 33.255495 -117.041053 151 4815ft 110kts
22-Apr-18 19:04 33.228692 -117.023576 154 4598ft 113kts
22-Apr-18 19:05 33.201699 -117.006779 152 4210ft 109kts
22-Apr-18 19:06 33.173646 -116.994845 195 3717ft 113kts
22-Apr-18 19:07 33.159906 -117.025218 254 3494ft 97kts
22-Apr-18 19:08 33.160952 -117.058630 267 3211ft 101kts
22-Apr-18 19:09 33.157549 -117.093787 270 2677ft 107kts
22-Apr-18 19:10 33.152728 -117.128099 250 2449ft 105kts
22-Apr-18 19:11 33.146434 -117.161161 265 2183ft 106kts
22-Apr-18 19:12 33.142071 -117.194721 251 1696ft 103kts
22-Apr-18 19:13 33.136082 -117.227666 266 1210ft 101kts
22-Apr-18 19:14 33.131977 -117.260887 258 592ft 97kts
22-Apr-18 19:15 33.128317 -117.278952 238 309ft 16kts
22-Apr-18 19:16 33.127553 -117.279437 114 309ft 0kts
22-Apr-18 19:17 33.127179 -117.277191 76 309ft 7kts

Navigation Log

Ident Type
Flight plan parsing failed, navigation log unavailable